Time;durP1;ratioP1;P1;durP2;ratioP2;P2;SDS_P1;SDS_P2;PMS_P1;PMS_P2;Temp;Humidity;BMP_temperature;BMP_pressure;BME280_temperature;BME280_humidity;BME280_pressure;Samples;Min_cycle;Max_cycle;Signal;HPM_P1;HPM_P2
2021/03/20 00:00:54;;;;;;;1.55;1.45;;;;;;;-0.10;100.00;100573.72;1750592;80;21119;-54
2021/03/20 00:03:57;;;;;;;0.50;0.50;;;;;;;-0.09;100.00;100574.02;1758923;80;21130;-54
2021/03/20 00:06:58;;;;;;;0.33;0.20;;;;;;;-0.09;100.00;100575.36;1778271;80;21547;-54
2021/03/20 00:10:00;;;;;;;0.98;0.72;;;;;;;-0.07;100.00;100567.93;1779757;79;21155;-54
2021/03/20 00:13:01;;;;;;;0.45;0.45;;;;;;;-0.06;100.00;100574.12;1778049;80;21150;-54
2021/03/20 00:16:01;;;;;;;1.05;1.05;;;;;;;-0.08;100.00;100567.60;1778180;80;21162;-54
2021/03/20 00:19:03;;;;;;;0.98;0.30;;;;;;;-0.09;100.00;100561.94;1735843;80;21145;-54
2021/03/20 00:22:03;;;;;;;0.35;0.35;;;;;;;-0.11;100.00;100561.31;1764660;80;21141;-54
2021/03/20 00:25:04;;;;;;;0.20;0.20;;;;;;;-0.12;100.00;100565.04;1794527;79;21164;-54
2021/03/20 00:28:05;;;;;;;0.42;0.42;;;;;;;-0.12;100.00;100565.04;1794538;79;21157;-54
2021/03/20 00:31:10;;;;;;;0.78;0.78;;;;;;;-0.10;100.00;100564.33;1750820;81;21167;-54
2021/03/20 00:34:10;;;;;;;1.87;0.72;;;;;;;-0.14;100.00;100557.70;1788672;80;21436;-54
2021/03/20 00:37:12;;;;;;;0.65;0.65;;;;;;;-0.14;100.00;100556.88;1788827;80;21413;-53
2021/03/20 00:40:16;;;;;;;0.13;0.13;;;;;;;-0.13;100.00;100557.99;1788918;79;21433;-53
2021/03/20 00:43:16;;;;;;;0.50;0.50;;;;;;;-0.09;100.00;100558.42;1788968;80;21141;-53
2021/03/20 00:46:17;;;;;;;2.83;1.90;;;;;;;-0.07;100.00;100553.16;1775447;79;21135;-53
2021/03/20 00:49:17;;;;;;;0.65;0.65;;;;;;;-0.04;100.00;100550.57;1765192;81;21146;-53
2021/03/20 00:52:18;;;;;;;0.35;0.35;;;;;;;-0.03;100.00;100550.87;1778809;79;21168;-53
2021/03/20 00:55:20;;;;;;;1.65;0.78;;;;;;;-0.03;100.00;100549.00;1791879;79;21197;-53
2021/03/20 00:58:38;;;;;;;0.50;0.50;;;;;;;-0.03;100.00;100554.90;1795067;79;21145;-53
2021/03/20 01:01:39;;;;;;;1.07;1.07;;;;;;;-0.04;100.00;100551.39;1780637;80;21120;-53
2021/03/20 01:04:39;;;;;;;2.42;1.47;;;;;;;-0.03;100.00;100549.00;1750704;81;21132;-53
2021/03/20 01:07:40;;;;;;;2.42;2.12;;;;;;;-0.02;100.00;100549.33;1758616;81;21470;-53
2021/03/20 01:10:40;;;;;;;1.65;1.55;;;;;;;0.00;100.00;100551.82;1750973;81;21217;-53
2021/03/20 01:13:42;;;;;;;7.97;2.05;;;;;;;-0.01;100.00;100552.31;1747706;81;21161;-53
2021/03/20 01:16:44;;;;;;;0.65;0.65;;;;;;;0.01;100.00;100552.11;1766645;80;21130;-52
2021/03/20 01:19:44;;;;;;;1.37;1.32;;;;;;;0.02;100.00;100554.28;1740890;82;21466;-53
2021/03/20 01:22:45;;;;;;;1.60;0.75;;;;;;;0.01;100.00;100548.61;1756184;80;21094;-53
2021/03/20 01:25:45;;;;;;;1.52;0.47;;;;;;;0.01;100.00;100548.61;1790499;80;21130;-54
2021/03/20 01:28:49;;;;;;;1.02;0.95;;;;;;;-0.01;100.00;100548.28;1790576;79;21138;-54
2021/03/20 01:31:51;;;;;;;1.65;1.62;;;;;;;0.01;100.00;100549.43;1790849;80;21145;-54
2021/03/20 01:34:51;;;;;;;0.20;0.20;;;;;;;-0.01;100.00;100553.66;1790583;80;21104;-54
2021/03/20 01:37:52;;;;;;;1.10;1.00;;;;;;;-0.03;100.00;100549.00;1790563;80;21142;-54
2021/03/20 01:40:56;;;;;;;1.65;1.22;;;;;;;-0.03;100.00;100544.97;1790689;80;21168;-54
2021/03/20 01:43:59;;;;;;;1.10;0.95;;;;;;;-0.02;100.00;100550.67;1734654;81;21186;-54
2021/03/20 01:47:00;;;;;;;1.50;1.10;;;;;;;-0.02;100.00;100551.20;1788893;80;21144;-54
2021/03/20 01:50:00;;;;;;;2.55;0.70;;;;;;;-0.03;100.00;100549.00;1791223;80;21728;-54
2021/03/20 01:53:04;;;;;;;1.15;1.15;;;;;;;-0.05;100.00;100547.06;1791210;79;21127;-54
2021/03/20 01:56:04;;;;;;;1.35;0.80;;;;;;;-0.06;100.00;100549.42;1791183;78;21155;-54
2021/03/20 01:59:08;;;;;;;1.10;1.10;;;;;;;-0.08;100.00;100548.80;1790863;80;21163;-54
2021/03/20 02:02:08;;;;;;;1.30;1.27;;;;;;;-0.08;100.00;100548.80;1785667;79;21131;-54
2021/03/20 02:05:11;;;;;;;0.20;0.20;;;;;;;-0.06;100.00;100548.08;1790398;80;21123;-54
2021/03/20 02:08:13;;;;;;;1.25;1.22;;;;;;;-0.04;100.00;100545.20;1790961;80;21159;-54
2021/03/20 02:11:39;;;;;;;1.20;0.98;;;;;;;-0.04;100.00;100547.88;1788412;80;22889;-53
2021/03/20 02:15:01;;;;;;;0.85;0.62;;;;;;;-0.04;100.00;100554.08;1769512;80;21180;-54
2021/03/20 02:18:25;;;;;;;1.30;1.27;;;;;;;-0.02;100.00;100552.02;1790553;80;21119;-54
2021/03/20 02:21:42;;;;;;;0.82;0.82;;;;;;;-0.03;100.00;100547.66;1790865;80;21083;-54
2021/03/20 02:25:22;;;;;;;1.10;1.02;;;;;;;-0.06;100.00;100558.83;1768596;80;21132;-54
2021/03/20 02:28:57;;;;;;;0.00;0.00;;;;;;;-0.05;100.00;100555.13;1790880;80;21559;-54
2021/03/20 02:32:41;;;;;;;2.08;1.47;;;;;;;0.02;100.00;100555.09;1854809;77;29480;-52
2021/03/20 02:35:58;;;;;;;0.47;0.47;;;;;;;-0.02;100.00;100561.94;1829471;78;21087;-53
2021/03/20 02:39:01;;;;;;;0.28;0.28;;;;;;;-0.01;100.00;100561.72;1796746;79;21193;-52
2021/03/20 02:42:22;;;;;;;3.05;1.15;;;;;;;-0.01;100.00;100559.55;1771898;79;21122;-52
2021/03/20 02:45:29;;;;;;;0.98;0.82;;;;;;;-0.01;100.00;100563.06;1803527;78;21522;-53
2021/03/20 02:48:50;;;;;;;4.75;1.85;;;;;;;-0.01;100.00;100560.89;1797097;79;21109;-53
2021/03/20 02:52:10;;;;;;;2.27;1.85;;;;;;;-0.02;100.00;100564.62;1798868;78;21091;-52
2021/03/20 02:55:27;;;;;;;3.92;2.20;;;;;;;-0.03;100.00;100562.44;1783634;78;21170;-53
2021/03/20 02:58:34;;;;;;;1.20;1.02;;;;;;;-0.03;100.00;100562.44;1825590;78;21581;-52
2021/03/20 03:01:34;;;;;;;0.45;0.45;;;;;;;-0.03;100.00;100562.44;1827505;77;21146;-53
2021/03/20 03:04:39;;;;;;;0.53;0.53;;;;;;;-0.03;100.00;100562.95;1785365;78;21146;-53
2021/03/20 03:07:50;;;;;;;1.15;1.12;;;;;;;-0.03;100.00;100560.27;1820117;78;21374;-52
2021/03/20 03:11:00;;;;;;;1.10;0.95;;;;;;;-0.05;100.00;100563.19;1796646;79;21113;-52
2021/03/20 03:14:10;;;;;;;0.10;0.10;;;;;;;-0.04;100.00;100562.14;1774243;78;21105;-52
2021/03/20 03:17:12;;;;;;;1.45;1.35;;;;;;;-0.01;100.00;100564.41;1803693;78;21134;-53
2021/03/20 03:20:35;;;;;;;2.37;0.98;;;;;;;-0.04;100.00;100566.16;1771110;79;21102;-52
2021/03/20 03:23:39;;;;;;;0.23;0.23;;;;;;;-0.06;100.00;100566.88;1799158;78;21505;-52
2021/03/20 03:26:36;;;;;;;0.40;0.40;;;;;;;-0.11;100.00;100565.34;1796733;79;21121;-52
2021/03/20 03:29:38;;;;;;;0.30;0.30;;;;;;;-0.13;100.00;100564.71;1798793;78;21414;-52
2021/03/20 03:32:44;;;;;;;0.42;0.42;;;;;;;-0.12;100.00;100577.65;1778279;79;21122;-52
2021/03/20 03:35:52;;;;;;;0.20;0.20;;;;;;;-0.11;100.00;100569.37;1798532;79;21694;-52
2021/03/20 03:39:01;;;;;;;0.40;0.40;;;;;;;-0.10;100.00;100568.84;1797832;79;21109;-52
2021/03/20 03:42:02;;;;;;;0.30;0.30;;;;;;;-0.09;100.00;100567.30;1775450;79;21121;-52
2021/03/20 03:45:03;;;;;;;1.77;0.82;;;;;;;-0.08;100.00;100572.16;1806667;78;21098;-52
2021/03/20 03:48:05;;;;;;;0.30;0.30;;;;;;;-0.07;100.00;100580.02;1838459;78;21145;-52
2021/03/20 03:51:21;;;;;;;0.20;0.20;;;;;;;-0.06;100.00;100576.81;1838559;78;21124;-52
2021/03/20 03:54:23;;;;;;;0.10;0.10;;;;;;;-0.06;100.00;100574.12;1822487;78;21165;-52
2021/03/20 03:57:51;;;;;;;0.10;0.10;;;;;;;-0.06;100.00;100577.62;1766354;78;21143;-52
2021/03/20 04:01:18;;;;;;;1.50;1.05;;;;;;;-0.06;100.00;100583.00;1766156;81;21131;-52
2021/03/20 04:04:52;;;;;;;0.90;0.90;;;;;;;-0.06;100.00;100574.94;1745148;81;21150;-52
2021/03/20 04:08:11;;;;;;;0.35;0.35;;;;;;;-0.04;100.00;100577.44;1738741;82;27516;-52
2021/03/20 04:11:38;;;;;;;0.35;0.33;;;;;;;-0.04;100.00;100578.78;1754543;81;21157;-52
2021/03/20 04:14:55;;;;;;;2.02;1.87;;;;;;;-0.05;100.00;100573.93;1748336;81;21185;-52
2021/03/20 04:18:18;;;;;;;2.80;1.87;;;;;;;-0.06;100.00;100580.84;1769258;81;20995;-52
2021/03/20 04:21:42;;;;;;;;;;;;;;;-0.08;100.00;100585.06;1771809;81;21153;-51
2021/03/20 04:24:53;;;;;;;2.50;0.45;;;;;;;-0.07;100.00;100589.42;1769306;81;27297;-53
2021/03/20 04:27:58;;;;;;;0.10;0.10;;;;;;;-0.07;100.00;100585.39;1753990;81;21161;-52
2021/03/20 04:31:13;;;;;;;0.60;0.60;;;;;;;-0.05;100.00;100588.70;1746796;80;21189;-52
2021/03/20 04:34:41;;;;;;;0.90;0.90;;;;;;;-0.06;100.00;100591.06;1763517;81;21141;-52
2021/03/20 04:37:46;;;;;;;0.70;0.62;;;;;;;-0.06;100.00;100595.09;1769298;79;21513;-52
2021/03/20 04:41:09;;;;;;;0.53;0.25;;;;;;;-0.04;100.00;100595.72;1763503;81;21145;-52
2021/03/20 04:44:11;;;;;;;0.10;0.10;;;;;;;-0.02;100.00;100604.93;1766033;79;21154;-47
2021/03/20 04:47:21;;;;;;;0.68;0.68;;;;;;;-0.03;100.00;100606.77;1794845;79;21160;-46
2021/03/20 04:50:29;;;;;;;0.05;0.05;;;;;;;-0.04;100.00;100604.30;1712632;81;21173;-48
2021/03/20 04:53:30;;;;;;;0.53;0.28;;;;;;;-0.04;100.00;100610.50;1771754;79;21118;-46
2021/03/20 04:56:31;;;;;;;0.10;0.10;;;;;;;0.01;100.00;100609.06;1793000;80;21638;-46
2021/03/20 04:59:53;;;;;;;;;;;;;;;0.05;100.00;100618.34;1723857;81;20979;-47
2021/03/20 05:03:31;;;;;;;0.20;0.20;;;;;;;0.06;100.00;100617.33;1763407;81;20626;-47
2021/03/20 05:06:31;;;;;;;0.57;0.55;;;;;;;0.07;100.00;100614.41;1772205;79;21132;-50
2021/03/20 05:09:33;;;;;;;0.65;0.65;;;;;;;0.12;100.00;100622.69;1768452;79;21146;-46
2021/03/20 05:12:37;;;;;;;0.28;0.28;;;;;;;0.19;100.00;100611.42;1794955;79;21134;-51
2021/03/20 05:15:38;;;;;;;0.80;0.80;;;;;;;0.23;100.00;100609.69;1795033;79;21085;-51
2021/03/20 05:18:39;;;;;;;2.98;2.70;;;;;;;0.28;100.00;100617.95;1795127;79;21130;-46
2021/03/20 05:21:46;;;;;;;0.85;0.55;;;;;;;0.30;100.00;100611.34;1795184;79;21490;-50
2021/03/20 05:24:46;;;;;;;0.35;0.35;;;;;;;0.37;100.00;100618.03;1795260;79;21111;-52
2021/03/20 05:27:46;;;;;;;1.50;1.05;;;;;;;0.42;100.00;100619.08;1791564;79;21107;-48
2021/03/20 05:30:47;;;;;;;3.85;1.80;;;;;;;0.45;100.00;100618.36;1794733;79;21157;-51
2021/03/20 05:33:48;;;;;;;1.40;1.22;;;;;;;0.43;100.00;100627.44;1738638;82;21256;-48
2021/03/20 05:36:48;;;;;;;0.00;0.00;;;;;;;0.46;100.00;100629.41;1763091;81;21589;-52
2021/03/20 05:39:49;;;;;;;1.55;1.07;;;;;;;0.44;100.00;100629.61;1769210;81;21146;-52
2021/03/20 05:43:14;;;;;;;1.17;0.80;;;;;;;0.45;100.00;100631.80;1738636;82;21129;-46
2021/03/20 05:46:47;;;;;;;2.17;1.85;;;;;;;0.48;100.00;100637.58;1762768;81;21178;-51
2021/03/20 05:49:56;;;;;;;0.60;0.60;;;;;;;0.50;100.00;100636.03;1701554;82;21631;-46
2021/03/20 05:53:14;;;;;;;5.30;1.20;;;;;;;0.50;100.00;100632.00;1672403;85;21179;-47
2021/03/20 05:56:45;;;;;;;0.37;0.37;;;;;;;0.52;100.00;100637.97;1737895;81;21159;-45
2021/03/20 06:00:13;;;;;;;0.68;0.68;;;;;;;0.54;100.00;100645.31;1738413;82;21174;-46
2021/03/20 06:03:47;;;;;;;0.42;0.42;;;;;;;0.53;100.00;100645.02;1735330;82;21445;-46
2021/03/20 06:07:14;;;;;;;1.47;0.85;;;;;;;0.60;100.00;100652.05;1742818;81;21165;-46
2021/03/20 06:10:40;;;;;;;0.72;0.60;;;;;;;0.68;100.00;100650.17;1738980;82;21522;-46
2021/03/20 06:14:12;;;;;;;1.30;0.30;;;;;;;0.71;100.00;100659.98;1764245;81;21150;-45
2021/03/20 06:17:49;;;;;;;0.57;0.57;;;;;;;0.74;100.00;100663.63;1737335;82;21133;-45
2021/03/20 06:21:03;;;;;;;2.75;1.67;;;;;;;0.74;100.00;100662.28;1760085;79;21115;-46
2021/03/20 06:24:29;;;;;;;0.57;0.57;;;;;;;0.73;100.00;100667.33;1778934;79;21186;-47
2021/03/20 06:27:36;;;;;;;1.17;0.60;;;;;;;0.76;100.00;100668.25;1768455;81;21573;-45
2021/03/20 06:30:50;;;;;;;0.30;0.30;;;;;;;0.77;100.00;100667.23;1768835;81;21549;-44
2021/03/20 06:33:58;;;;;;;0.20;0.20;;;;;;;0.81;100.00;100669.80;1766869;79;21166;-46
2021/03/20 06:37:14;;;;;;;0.42;0.37;;;;;;;0.80;100.00;100676.75;1747519;81;21107;-45
2021/03/20 06:40:37;;;;;;;0.53;0.45;;;;;;;0.77;100.00;100675.83;1764427;81;21659;-45
2021/03/20 06:43:39;;;;;;;;;;;;;;;0.75;100.00;100674.68;1678686;81;21596;-45
2021/03/20 06:46:40;;;;;;;1.65;0.45;;;;;;;0.78;100.00;100675.59;1745361;81;20288;-45
2021/03/20 06:49:46;;;;;;;0.03;0.03;;;;;;;0.85;100.00;100679.11;1789924;79;21115;-46
2021/03/20 06:52:46;;;;;;;0.28;0.28;;;;;;;0.95;100.00;100680.55;1796788;79;21130;-46
2021/03/20 06:55:50;;;;;;;0.28;0.10;;;;;;;1.02;100.00;100682.70;1745137;81;21105;-45
2021/03/20 06:58:51;;;;;;;0.20;0.20;;;;;;;1.01;100.00;100680.52;1755041;79;21165;-46
2021/03/20 07:02:28;;;;;;;5.25;1.25;;;;;;;1.04;100.00;100684.67;1778818;79;21558;-50
2021/03/20 07:05:38;;;;;;;0.95;0.65;;;;;;;1.11;100.00;100684.11;1751747;81;21097;-50
2021/03/20 07:09:05;;;;;;;1.50;0.62;;;;;;;1.14;100.00;100679.67;1767226;81;21140;-51
2021/03/20 07:12:21;;;;;;;1.50;0.68;;;;;;;1.15;100.00;100686.70;1792165;79;21197;-45
2021/03/20 07:15:27;;;;;;;0.68;0.68;;;;;;;1.12;100.00;100689.82;1751239;80;21569;-49
2021/03/20 07:18:47;;;;;;;1.57;1.32;;;;;;;1.07;100.00;100695.02;1798626;79;21162;-45
2021/03/20 07:21:52;;;;;;;0.00;0.00;;;;;;;1.04;100.00;100698.95;1767009;79;21178;-45
2021/03/20 07:24:53;;;;;;;0.75;0.30;;;;;;;1.01;100.00;100707.42;1759961;81;21280;-49
2021/03/20 07:27:53;;;;;;;0.45;0.45;;;;;;;1.00;100.00;100707.66;1739975;81;21079;-50
2021/03/20 07:31:16;;;;;;;0.50;0.35;;;;;;;0.95;100.00;100710.15;1739807;81;21138;-51
2021/03/20 07:34:22;;;;;;;2.13;1.53;;;;;;;0.89;100.00;100710.97;1791545;77;21154;-48
2021/03/20 07:37:28;;;;;;;0.10;0.10;;;;;;;0.83;100.00;100710.77;1774095;79;21450;-51
2021/03/20 07:40:38;;;;;;;0.90;0.85;;;;;;;0.78;100.00;100714.61;1782564;79;21119;-45
2021/03/20 07:43:39;;;;;;;0.10;0.10;;;;;;;0.79;100.00;100712.24;1795821;79;21153;-46
2021/03/20 07:46:39;;;;;;;1.92;1.75;;;;;;;0.81;100.00;100715.52;1808572;78;21175;-52
2021/03/20 07:49:41;;;;;;;0.27;0.20;;;;;;;0.80;100.00;100716.58;1749513;80;21131;-52
2021/03/20 07:52:42;;;;;;;0.53;0.53;;;;;;;0.84;100.00;100729.08;1759589;79;21131;-50
2021/03/20 07:56:20;;;;;;;0.10;0.10;;;;;;;0.82;100.00;100727.96;1756090;79;21166;-52
2021/03/20 07:59:32;;;;;;;0.53;0.53;;;;;;;0.82;100.00;100730.66;1792590;79;21174;-47
2021/03/20 08:02:45;;;;;;;0.93;0.93;;;;;;;0.79;100.00;100737.80;1799887;79;21142;-53
2021/03/20 08:05:46;;;;;;;1.00;0.55;;;;;;;0.80;100.00;100742.13;1788434;78;21126;-46
2021/03/20 08:08:46;;;;;;;1.40;1.15;;;;;;;0.78;100.00;100746.89;1765397;81;21163;-52
2021/03/20 08:11:46;;;;;;;0.05;0.05;;;;;;;0.79;100.00;100751.25;1758184;80;21150;-48
2021/03/20 08:14:57;;;;;;;0.00;0.00;;;;;;;0.76;100.00;100750.30;1781574;78;21110;-47
2021/03/20 08:17:57;;;;;;;0.55;0.55;;;;;;;0.75;100.00;100750.00;1771596;79;21141;-47
2021/03/20 08:21:23;;;;;;;1.12;1.12;;;;;;;0.72;100.00;100748.23;1775063;79;21111;-53
2021/03/20 08:24:48;;;;;;;0.42;0.28;;;;;;;0.70;100.00;100749.80;1781411;78;21117;-47
2021/03/20 08:28:29;;;;;;;0.08;0.08;;;;;;;0.72;100.00;100750.42;1753299;78;21068;-48
2021/03/20 08:31:49;;;;;;;0.00;0.00;;;;;;;0.75;100.00;100751.34;1774344;78;21156;-48
2021/03/20 08:35:27;;;;;;;0.15;0.15;;;;;;;0.76;100.00;100755.68;1764671;79;21136;-48
2021/03/20 08:38:59;;;;;;;1.15;1.07;;;;;;;0.78;100.00;100754.95;1747611;80;21470;-49
2021/03/20 08:42:38;;;;;;;0.33;0.33;;;;;;;0.83;100.00;100765.10;1753481;81;21141;-50
2021/03/20 08:45:52;;;;;;;0.37;0.37;;;;;;;0.90;100.00;100766.45;1665777;86;21151;-48
2021/03/20 08:49:36;;;;;;;0.00;0.00;;;;;;;0.95;100.00;100765.31;1672312;84;21186;-48
2021/03/20 08:52:59;;;;;;;0.15;0.15;;;;;;;1.01;100.00;100775.23;1756499;79;21225;-49
2021/03/20 08:56:31;;;;;;;1.12;0.75;;;;;;;1.04;100.00;100771.62;1750578;81;29183;-47
2021/03/20 08:59:36;;;;;;;0.25;0.25;;;;;;;1.06;100.00;100774.94;1761075;79;21540;-48
2021/03/20 09:02:42;;;;;;;0.60;0.60;;;;;;;1.10;100.00;100779.89;1767777;79;21152;-49
2021/03/20 09:05:50;;;;;;;0.28;0.28;;;;;;;1.10;100.00;100782.58;1773230;80;21365;-48
2021/03/20 09:08:50;;;;;;;0.03;0.03;;;;;;;1.11;100.00;100786.91;1778252;80;21009;-48
2021/03/20 09:12:11;;;;;;;0.00;0.00;;;;;;;1.06;100.00;100786.19;1744477;81;21178;-48
2021/03/20 09:15:15;;;;;;;0.00;0.00;;;;;;;0.99;100.00;100789.41;1756797;81;21128;-48
2021/03/20 09:18:16;;;;;;;0.30;0.30;;;;;;;0.91;100.00;100791.79;1747765;79;21120;-48
2021/03/20 09:21:16;;;;;;;0.00;0.00;;;;;;;0.88;100.00;100787.36;1742865;81;21401;-47
2021/03/20 09:24:22;;;;;;;0.55;0.55;;;;;;;0.82;100.00;100790.36;1755762;81;21130;-49
2021/03/20 09:28:02;;;;;;;0.00;0.00;;;;;;;0.76;100.00;100794.69;1752556;79;21162;-48
2021/03/20 09:31:07;;;;;;;0.00;0.00;;;;;;;0.73;100.00;100801.01;1749229;79;21139;-49
2021/03/20 09:34:13;;;;;;;0.10;0.10;;;;;;;0.67;100.00;100803.16;1772168;79;21222;-50
2021/03/20 09:37:28;;;;;;;0.10;0.10;;;;;;;0.60;100.00;100812.59;1745043;81;21142;-49
2021/03/20 09:40:54;;;;;;;0.20;0.20;;;;;;;0.54;100.00;100808.01;1765257;81;21146;-48
2021/03/20 09:44:06;;;;;;;0.23;0.23;;;;;;;0.52;100.00;100811.41;1703059;84;21206;-48
2021/03/20 09:47:09;;;;;;;0.10;0.10;;;;;;;0.47;100.00;100809.86;1719246;82;27465;-51
2021/03/20 09:50:27;;;;;;;0.45;0.45;;;;;;;0.41;100.00;100823.08;1766902;79;21107;-50
2021/03/20 09:53:38;;;;;;;0.10;0.10;;;;;;;0.38;100.00;100821.33;1770831;77;21161;-49
2021/03/20 09:56:38;;;;;;;0.57;0.57;;;;;;;0.36;100.00;100821.52;1774730;79;21007;-53
2021/03/20 09:59:45;;;;;;;0.15;0.15;;;;;;;0.35;100.00;100823.09;1769632;79;21165;-53
2021/03/20 10:02:58;;;;;;;0.05;0.05;;;;;;;0.34;100.00;100831.64;1785344;79;21229;-56
2021/03/20 10:06:22;;;;;;;0.20;0.20;;;;;;;0.37;100.00;100829.06;1753922;81;21172;-54
2021/03/20 10:09:27;;;;;;;0.88;0.20;;;;;;;0.40;100.00;100832.20;1744312;80;21154;-54
2021/03/20 10:12:49;;;;;;;0.40;0.40;;;;;;;0.48;100.00;100833.04;1773685;79;21218;-54
2021/03/20 10:16:07;;;;;;;0.17;0.17;;;;;;;0.57;100.00;100834.48;1779333;79;21200;-54
2021/03/20 10:19:18;;;;;;;0.00;0.00;;;;;;;0.65;100.00;100842.39;1772240;79;21137;-57
2021/03/20 10:22:35;;;;;;;0.33;0.33;;;;;;;0.71;100.00;100842.89;1780801;79;21513;-57
2021/03/20 10:25:38;;;;;;;1.55;0.28;;;;;;;0.76;100.00;100855.73;1803439;79;21166;-56
2021/03/20 10:28:50;;;;;;;0.00;0.00;;;;;;;0.79;100.00;100856.17;1803407;79;20987;-53
2021/03/20 10:31:53;;;;;;;0.23;0.23;;;;;;;0.78;100.00;100846.95;1776810;79;21126;-57
2021/03/20 10:35:02;;;;;;;0.78;0.57;;;;;;;0.80;100.00;100857.00;1759887;80;21272;-53
2021/03/20 10:38:02;;;;;;;0.20;0.20;;;;;;;0.82;100.00;100858.45;1740520;81;21466;-52
2021/03/20 10:41:05;;;;;;;0.00;0.00;;;;;;;0.86;100.00;100856.16;1812821;79;21601;-52
2021/03/20 10:44:22;;;;;;;0.00;0.00;;;;;;;0.93;100.00;100859.69;1764309;81;21189;-51
2021/03/20 10:47:39;;;;;;;0.40;0.20;;;;;;;0.99;100.00;100848.61;1755713;81;21449;-53
2021/03/20 10:50:43;;;;;;;0.10;0.10;;;;;;;1.05;100.00;100847.80;1786439;80;21163;-51
2021/03/20 10:53:53;;;;;;;0.30;0.30;;;;;;;1.11;100.00;100845.61;1786834;78;21431;-52
2021/03/20 10:56:54;;;;;;;0.00;0.00;;;;;;;1.20;100.00;100847.06;1800981;78;21430;-55
2021/03/20 10:59:55;;;;;;;0.47;0.42;;;;;;;1.36;100.00;100852.56;1819567;78;21661;-55
2021/03/20 11:02:58;;;;;;;0.10;0.10;;;;;;;1.40;100.00;100851.09;1755757;81;21477;-50
2021/03/20 11:05:59;;;;;;;0.10;0.10;;;;;;;1.45;100.00;100846.42;1784103;79;21183;-55
2021/03/20 11:09:29;;;;;;;0.20;0.20;;;;;;;1.47;100.00;100857.30;1764743;81;21159;-51
2021/03/20 11:12:34;;;;;;;0.15;0.15;;;;;;;1.46;100.00;100852.13;1792831;78;21507;-49
2021/03/20 11:15:36;;;;;;;0.47;0.15;;;;;;;1.45;100.00;100850.46;1816272;78;21182;-54
2021/03/20 11:18:41;;;;;;;0.00;0.00;;;;;;;1.46;100.00;100860.22;1808646;78;21155;-54
2021/03/20 11:21:50;;;;;;;0.20;0.20;;;;;;;1.47;100.00;100863.20;1807118;78;21001;-49
2021/03/20 11:25:01;;;;;;;0.13;0.13;;;;;;;1.43;100.00;100860.61;1819863;77;21127;-54
2021/03/20 11:28:12;;;;;;;1.07;0.47;;;;;;;1.44;100.00;100858.25;1851449;77;21130;-55
2021/03/20 11:31:12;;;;;;;0.00;0.00;;;;;;;1.37;100.00;100859.59;1813316;77;21160;-55
2021/03/20 11:34:12;;;;;;;0.75;0.72;;;;;;;1.33;100.00;100863.72;1784147;80;21985;-53
2021/03/20 11:37:22;;;;;;;0.10;0.10;;;;;;;1.36;100.00;100860.64;1803752;78;21155;-54
2021/03/20 11:40:39;;;;;;;0.05;0.05;;;;;;;1.42;100.00;100858.97;1786031;78;21156;-57
2021/03/20 11:43:50;;;;;;;0.28;0.20;;;;;;;1.49;100.00;100867.34;1786027;80;21668;-59
2021/03/20 11:46:56;;;;;;;1.00;0.98;;;;;;;1.59;100.00;100866.92;1811347;78;21693;-55
2021/03/20 11:50:02;;;;;;;0.50;0.42;;;;;;;1.66;100.00;100855.61;1794628;78;21148;-59
2021/03/20 11:53:30;;;;;;;0.20;0.17;;;;;;;1.78;100.00;100851.76;1795893;78;21180;-55
2021/03/20 11:56:33;;;;;;;1.15;0.25;;;;;;;1.86;100.00;100852.04;1785764;78;21159;-54
2021/03/20 11:59:50;;;;;;;0.28;0.25;;;;;;;1.89;100.00;100848.92;1800399;78;21485;-54
2021/03/20 12:02:52;;;;;;;0.88;0.25;;;;;;;1.87;100.00;100846.95;1817237;78;21207;-54
2021/03/20 12:05:53;;;;;;;0.23;0.23;;;;;;;1.89;100.00;100843.53;1801771;78;21139;-56
2021/03/20 12:09:00;;;;;;;0.00;0.00;;;;;;;1.99;100.00;100848.47;1788901;78;21693;-57
2021/03/20 12:12:04;;;;;;;0.10;0.10;;;;;;;2.15;100.00;100848.83;1846069;77;21107;-55
2021/03/20 12:15:04;;;;;;;0.10;0.10;;;;;;;2.27;100.00;100845.44;1843953;77;21123;-58
2021/03/20 12:18:20;;;;;;;0.00;0.00;;;;;;;2.35;100.00;100847.91;1817398;78;20997;-59
2021/03/20 12:21:20;;;;;;;0.17;0.17;;;;;;;2.42;100.00;100843.28;1811658;78;21471;-59
2021/03/20 12:24:26;;;;;;;0.03;0.03;;;;;;;2.49;100.00;100832.46;1805445;78;21483;-59
2021/03/20 12:27:43;;;;;;;0.10;0.10;;;;;;;2.48;100.00;100838.91;1799754;78;21116;-58
2021/03/20 12:30:43;;;;;;;0.50;0.50;;;;;;;2.47;100.00;100846.68;1798725;78;21140;-58
2021/03/20 12:34:05;;;;;;;0.08;0.08;;;;;;;2.42;100.00;100840.58;1814342;78;21175;-55
2021/03/20 12:37:19;;;;;;;3.37;1.00;;;;;;;2.42;100.00;100845.97;1794456;79;21133;-53
2021/03/20 12:40:22;;;;;;;0.00;0.00;;;;;;;2.43;100.00;100838.20;1795101;79;21137;-53
2021/03/20 12:43:38;;;;;;;0.00;0.00;;;;;;;2.42;100.00;100842.45;1805598;77;21515;-51
2021/03/20 12:46:39;;;;;;;0.98;0.85;;;;;;;2.40;100.00;100844.05;1780738;80;21144;-51
2021/03/20 12:49:42;;;;;;;0.00;0.00;;;;;;;2.45;100.00;100832.08;1781988;79;21476;-51
2021/03/20 12:52:43;;;;;;;0.55;0.55;;;;;;;2.50;100.00;100832.25;1780793;80;21135;-52
2021/03/20 12:55:44;;;;;;;0.00;0.00;;;;;;;2.55;100.00;100833.78;1781660;79;21128;-51
2021/03/20 12:58:45;;;;;;;0.03;0.03;;;;;;;2.64;100.00;100839.73;1782809;79;21451;-50
2021/03/20 13:01:47;;;;;;;0.42;0.30;;;;;;;2.74;100.00;100837.91;1785497;79;21116;-49
2021/03/20 13:04:48;;;;;;;0.27;0.23;;;;;;;2.84;100.00;100841.47;1812542;79;21159;-49
2021/03/20 13:07:48;;;;;;;0.00;0.00;;;;;;;2.91;100.00;100827.41;1801551;79;21098;-49
2021/03/20 13:10:49;;;;;;;0.00;0.00;;;;;;;3.01;100.00;100829.09;1801882;79;21107;-48
2021/03/20 13:13:50;;;;;;;0.20;0.20;;;;;;;3.10;100.00;100823.72;1780585;79;21126;-48
2021/03/20 13:16:51;;;;;;;0.00;0.00;;;;;;;3.12;100.00;100822.16;1797929;79;21160;-48
2021/03/20 13:19:53;;;;;;;0.00;0.00;;;;;;;3.09;99.78;100818.53;1777585;79;21638;-47
2021/03/20 13:22:54;;;;;;;1.02;0.57;;;;;;;3.08;99.68;100822.29;1771768;80;21156;-48
2021/03/20 13:25:54;;;;;;;0.35;0.35;;;;;;;3.11;99.19;100814.56;1771911;79;21685;-47
2021/03/20 13:28:55;;;;;;;0.00;0.00;;;;;;;3.15;98.44;100818.48;1788973;79;21170;-47
2021/03/20 13:31:55;;;;;;;0.28;0.28;;;;;;;3.22;98.33;100820.60;1803465;79;21140;-47
2021/03/20 13:34:58;;;;;;;0.28;0.28;;;;;;;3.30;98.21;100814.62;1798299;79;21282;-48
2021/03/20 13:37:59;;;;;;;0.00;0.00;;;;;;;3.36;97.39;100816.41;1763212;81;21141;-44
2021/03/20 13:41:00;;;;;;;0.70;0.65;;;;;;;3.43;96.71;100819.88;1771201;79;21497;-44
2021/03/20 13:44:02;;;;;;;1.02;0.40;;;;;;;3.50;95.98;100818.47;1761469;81;21127;-44
2021/03/20 13:47:02;;;;;;;0.00;0.00;;;;;;;3.55;95.77;100818.09;1762202;81;21145;-44
2021/03/20 13:50:02;;;;;;;0.10;0.10;;;;;;;3.61;94.71;100833.92;1732521;81;21134;-45
2021/03/20 13:53:03;;;;;;;0.10;0.10;;;;;;;3.64;94.91;100825.39;1762927;80;21129;-44
2021/03/20 13:56:07;;;;;;;0.00;0.00;;;;;;;3.67;94.45;100826.30;1751165;80;21150;-44
2021/03/20 13:59:07;;;;;;;0.55;0.55;;;;;;;3.71;93.89;100824.80;1761408;81;21163;-48
2021/03/20 14:02:09;;;;;;;0.10;0.03;;;;;;;3.71;93.64;100827.50;1792830;79;21150;-48
2021/03/20 14:05:13;;;;;;;0.10;0.10;;;;;;;3.69;93.24;100824.20;1763828;79;21150;-48
2021/03/20 14:08:14;;;;;;;0.00;0.00;;;;;;;3.68;93.44;100824.41;1761515;81;21094;-48
2021/03/20 14:11:14;;;;;;;0.00;0.00;;;;;;;3.66;93.47;100832.77;1732523;82;21122;-48
2021/03/20 14:14:15;;;;;;;0.20;0.20;;;;;;;3.63;93.17;100827.78;1784054;80;21169;-47
2021/03/20 14:17:16;;;;;;;0.10;0.10;;;;;;;3.57;92.68;100828.16;1808839;78;21592;-48
2021/03/20 14:20:35;;;;;;;0.20;0.20;;;;;;;3.50;92.60;100823.87;1782987;80;21162;-48
2021/03/20 14:23:35;;;;;;;0.00;0.00;;;;;;;3.44;92.36;100825.08;1763003;81;21138;-49
2021/03/20 14:26:36;;;;;;;0.00;0.00;;;;;;;3.42;92.42;100821.77;1792166;79;21426;-48
2021/03/20 14:29:36;;;;;;;0.15;0.15;;;;;;;3.42;92.48;100819.59;1754538;81;21617;-48
2021/03/20 14:32:37;;;;;;;0.60;0.60;;;;;;;3.42;93.05;100824.47;1771980;79;21150;-48
2021/03/20 14:35:39;;;;;;;0.20;0.20;;;;;;;3.48;93.21;100811.11;1759607;80;21190;-48
2021/03/20 14:38:40;;;;;;;0.08;0.08;;;;;;;3.50;93.35;100820.64;1781303;79;21104;-49